Climatologie pour Saint-Brevin les Pins
Jour • Résumé pour juillet 27, 2017 Système :  Métrique    Anglais   Mixte
« - 1 jour
+ 1 jour »
Jour Semaine Mois Année Personnalisé
  Maximum : Minimum : Moyenne :
Température sous abri : 21.8 °C 15.8 °C 18.3 °C
Point de rosée : 18.1 °C 13.8 °C 15.5 °C
Humidité : 98 % 64 % 84 %
Vitesse du vent : 25.7 km/h 0.0 km/h 8.2 km/h
Rafale : 33.8 km/h - -
Direction :- - WNW
Pression : 1014.4 hPa 1011.4 hPa -
Précipitations : 0.3 mm    
Historical Graphs
 
 
Tableau de données pour juillet 27, 2017
Heure Tempé Pt rosée Pression Vent Vitesse Rafale Humidité Taux pluie (/hr) Soleil
00:00 18.3 °C 18.0 °C 1012.8 hPa NW 3.2 km/h 17.7 km/h 98 % 0.3 mm 0 W/m2
00:10 18.3 °C 18.0 °C 1012.4 hPa WNW 4.8 km/h 19.3 km/h 98 % 0.3 mm 0 W/m2
00:15 18.3 °C 18.0 °C 1012.4 hPa West 16.1 km/h 20.9 km/h 98 % 0.3 mm 0 W/m2
00:20 18.3 °C 18.0 °C 1012.4 hPa West 4.8 km/h 20.9 km/h 98 % 0.3 mm 0 W/m2
00:25 18.3 °C 18.0 °C 1012.4 hPa WSW 4.8 km/h 20.9 km/h 98 % 0.3 mm 0 W/m2
00:30 18.3 °C 18.0 °C 1012.4 hPa West 6.4 km/h 19.3 km/h 98 % 0.3 mm 0 W/m2
00:35 18.4 °C 18.1 °C 1012.4 hPa NW 4.8 km/h 20.9 km/h 98 % 0.0 mm 0 W/m2
00:40 18.4 °C 18.1 °C 1012.4 hPa West 4.8 km/h 20.9 km/h 98 % 0.0 mm 0 W/m2
00:45 18.4 °C 18.1 °C 1012.4 hPa WSW 6.4 km/h 20.9 km/h 98 % 0.0 mm 0 W/m2
00:50 18.3 °C 18.0 °C 1012.4 hPa West 12.9 km/h 20.9 km/h 98 % 0.0 mm 0 W/m2
00:55 18.3 °C 18.0 °C 1012.4 hPa WNW 8.0 km/h 25.7 km/h 98 % 0.3 mm 0 W/m2
01:00 17.9 °C 17.5 °C 1012.8 hPa West 6.4 km/h 25.7 km/h 97 % 0.3 mm 0 W/m2
01:05 17.7 °C 17.2 °C 1012.4 hPa WNW 9.7 km/h 19.3 km/h 97 % 0.3 mm 0 W/m2
01:10 17.6 °C 17.3 °C 1012.4 hPa WNW 3.2 km/h 14.5 km/h 98 % 0.3 mm 0 W/m2
01:15 17.6 °C 17.3 °C 1012.4 hPa WNW 4.8 km/h 11.3 km/h 98 % 0.3 mm 0 W/m2
01:20 17.6 °C 17.3 °C 1012.4 hPa WNW 4.8 km/h 12.9 km/h 98 % 0.3 mm 0 W/m2
01:25 17.5 °C 17.2 °C 1012.4 hPa NNW 12.9 km/h 19.3 km/h 98 % 0.3 mm 0 W/m2
01:30 17.4 °C 17.1 °C 1012.4 hPa WNW 4.8 km/h 19.3 km/h 98 % 0.3 mm 0 W/m2
01:35 17.3 °C 16.8 °C 1012.1 hPa NW 3.2 km/h 14.5 km/h 97 % 0.3 mm 0 W/m2
01:40 17.2 °C 16.9 °C 1012.1 hPa WNW 4.8 km/h 14.5 km/h 98 % 0.3 mm 0 W/m2
01:45 17.2 °C 16.9 °C 1012.1 hPa WNW 9.7 km/h 12.9 km/h 98 % 0.3 mm 0 W/m2
01:50 17.2 °C 16.9 °C 1012.1 hPa WNW 1.6 km/h 12.9 km/h 98 % 0.3 mm 0 W/m2
01:55 17.2 °C 16.9 °C 1012.1 hPa Calm   9.7 km/h 98 % 0.0 mm 0 W/m2
02:00 17.2 °C 16.9 °C 1012.1 hPa West 4.8 km/h 8.0 km/h 98 % 0.0 mm 0 W/m2
02:05 17.3 °C 17.0 °C 1012.1 hPa West 1.6 km/h 9.7 km/h 98 % 0.0 mm 0 W/m2
02:10 17.3 °C 17.0 °C 1012.1 hPa Calm   9.7 km/h 98 % 0.0 mm 0 W/m2
02:15 17.3 °C 17.0 °C 1012.1 hPa Calm   6.4 km/h 98 % 0.0 mm 0 W/m2
02:20 17.2 °C 16.9 °C 1012.1 hPa Calm   6.4 km/h 98 % 0.0 mm 0 W/m2
02:25 17.2 °C 16.9 °C 1012.1 hPa Calm   9.7 km/h 98 % 0.0 mm 0 W/m2
02:30 17.1 °C 16.8 °C 1011.7 hPa WNW 3.2 km/h 9.7 km/h 98 % 0.0 mm 0 W/m2
02:35 17.1 °C 16.7 °C 1011.7 hPa WNW 3.2 km/h 8.0 km/h 98 % 0.0 mm 0 W/m2
02:40 17.0 °C 16.5 °C 1011.7 hPa WSW 9.7 km/h 11.3 km/h 97 % 0.0 mm 0 W/m2
02:45 17.0 °C 16.5 °C 1011.7 hPa WSW 8.0 km/h 11.3 km/h 97 % 0.0 mm 0 W/m2
02:50 17.0 °C 16.7 °C 1011.7 hPa West 3.2 km/h 9.7 km/h 98 % 0.0 mm 0 W/m2
02:55 17.1 °C 16.6 °C 1011.7 hPa WNW 4.8 km/h 12.9 km/h 97 % 0.0 mm 0 W/m2
03:00 17.0 °C 16.5 °C 1011.7 hPa WNW 3.2 km/h 12.9 km/h 97 % 0.0 mm 0 W/m2
03:05 17.0 °C 16.5 °C 1011.7 hPa Calm   11.3 km/h 97 % 0.0 mm 0 W/m2
03:10 16.9 °C 16.5 °C 1011.7 hPa Calm   9.7 km/h 97 % 0.0 mm 0 W/m2
03:15 16.9 °C 16.4 °C 1011.7 hPa NW 4.8 km/h 9.7 km/h 97 % 0.0 mm 0 W/m2
03:20 16.8 °C 16.3 °C 1011.7 hPa West 6.4 km/h 9.7 km/h 97 % 0.0 mm 0 W/m2
03:25 16.8 °C 16.3 °C 1011.7 hPa West 8.0 km/h 11.3 km/h 97 % 0.0 mm 0 W/m2
03:30 16.7 °C 16.2 °C 1012.1 hPa WNW 3.2 km/h 11.3 km/h 97 % 0.0 mm 0 W/m2
03:35 16.8 °C 16.5 °C 1012.1 hPa WNW 9.7 km/h 11.3 km/h 98 % 0.0 mm 0 W/m2
03:40 16.7 °C 16.2 °C 1012.1 hPa WNW 4.8 km/h 9.7 km/h 97 % 0.0 mm 0 W/m2
03:45 16.7 °C 16.4 °C 1012.1 hPa WNW 3.2 km/h 9.7 km/h 98 % 0.0 mm 0 W/m2
03:50 16.7 °C 16.2 °C 1012.1 hPa Calm   9.7 km/h 97 % 0.0 mm 0 W/m2
03:55 16.7 °C 16.2 °C 1012.1 hPa West 4.8 km/h 9.7 km/h 97 % 0.0 mm 0 W/m2
04:00 16.7 °C 16.2 °C 1012.1 hPa WNW 1.6 km/h 8.0 km/h 97 % 0.0 mm 0 W/m2
04:05 16.7 °C 16.2 °C 1011.7 hPa WNW 4.8 km/h 8.0 km/h 97 % 0.0 mm 0 W/m2
04:10 16.6 °C 16.1 °C 1011.7 hPa West 12.9 km/h 12.9 km/h 97 % 0.0 mm 0 W/m2
04:15 16.4 °C 15.9 °C 1011.7 hPa West 3.2 km/h 14.5 km/h 97 % 0.0 mm 0 W/m2
04:20 16.3 °C 15.9 °C 1011.7 hPa WNW 3.2 km/h 14.5 km/h 97 % 0.0 mm 0 W/m2
04:25 16.3 °C 15.9 °C 1011.7 hPa NW 3.2 km/h 11.3 km/h 97 % 0.0 mm 0 W/m2
04:30 16.4 °C 15.9 °C 1011.7 hPa WNW 1.6 km/h 11.3 km/h 97 % 0.0 mm 0 W/m2
04:35 16.3 °C 15.9 °C 1011.7 hPa WNW 6.4 km/h 11.3 km/h 97 % 0.0 mm 0 W/m2
04:40 16.3 °C 15.9 °C 1011.4 hPa WNW 8.0 km/h 9.7 km/h 97 % 0.0 mm 0 W/m2
04:45 16.3 °C 15.9 °C 1011.4 hPa Calm   8.0 km/h 97 % 0.0 mm 0 W/m2
04:50 16.3 °C 15.8 °C 1011.4 hPa Calm   8.0 km/h 97 % 0.0 mm 0 W/m2
04:55 16.2 °C 15.7 °C 1011.4 hPa Calm   3.2 km/h 97 % 0.0 mm 0 W/m2
05:00 16.1 °C 15.6 °C 1011.4 hPa WNW 1.6 km/h 4.8 km/h 97 % 0.0 mm 0 W/m2
05:05 16.0 °C 15.5 °C 1011.4 hPa Calm   4.8 km/h 97 % 0.0 mm 0 W/m2
05:10 16.0 °C 15.5 °C 1011.4 hPa Calm   4.8 km/h 97 % 0.0 mm 0 W/m2
05:20 16.1 °C 15.6 °C 1011.4 hPa WNW 3.2 km/h 8.0 km/h 97 % 0.0 mm 0 W/m2
05:25 16.1 °C 15.6 °C 1011.4 hPa Calm   8.0 km/h 97 % 0.0 mm 0 W/m2
05:30 16.1 °C 15.8 °C 1011.4 hPa WNW 3.2 km/h 6.4 km/h 98 % 0.0 mm 0 W/m2
05:35 16.2 °C 15.7 °C 1011.4 hPa WNW 3.2 km/h 6.4 km/h 97 % 0.0 mm 0 W/m2
05:40 16.2 °C 15.7 °C 1011.4 hPa Calm   6.4 km/h 97 % 0.0 mm 0 W/m2
05:45 16.2 °C 15.7 °C 1011.4 hPa Calm   6.4 km/h 97 % 0.0 mm 0 W/m2
05:50 16.3 °C 15.9 °C 1011.4 hPa Calm   3.2 km/h 97 % 0.0 mm 0 W/m2
05:55 16.3 °C 15.8 °C 1011.4 hPa Calm   4.8 km/h 97 % 0.0 mm 0 W/m2
06:00 16.2 °C 15.7 °C 1011.4 hPa WNW 1.6 km/h 6.4 km/h 97 % 0.0 mm 0 W/m2
06:05 16.2 °C 15.7 °C 1011.4 hPa NW 4.8 km/h 6.4 km/h 97 % 0.0 mm 0 W/m2
06:10 16.2 °C 15.7 °C 1011.4 hPa WNW 1.6 km/h 6.4 km/h 97 % 0.0 mm 0 W/m2
06:15 16.2 °C 15.7 °C 1011.4 hPa WNW 1.6 km/h 6.4 km/h 97 % 0.0 mm 0 W/m2
06:20 16.1 °C 15.6 °C 1011.4 hPa West 4.8 km/h 8.0 km/h 97 % 0.0 mm 0 W/m2
06:25 16.1 °C 15.6 °C 1011.4 hPa WNW 1.6 km/h 8.0 km/h 97 % 0.0 mm 0 W/m2
06:30 16.0 °C 15.5 °C 1011.4 hPa West 4.8 km/h 11.3 km/h 97 % 0.0 mm 0 W/m2
06:35 15.8 °C 15.4 °C 1011.4 hPa West 1.6 km/h 12.9 km/h 97 % 0.0 mm 0 W/m2
06:40 15.8 °C 15.3 °C 1011.4 hPa West 3.2 km/h 12.9 km/h 97 % 0.0 mm 0 W/m2
06:45 15.8 °C 15.3 °C 1011.4 hPa West 4.8 km/h 11.3 km/h 97 % 0.0 mm 0 W/m2
06:50 15.8 °C 15.2 °C 1011.7 hPa West 3.2 km/h 11.3 km/h 96 % 0.0 mm 0 W/m2
06:55 15.8 °C 15.2 °C 1011.7 hPa WNW 9.7 km/h 17.7 km/h 96 % 0.0 mm 0 W/m2
07:00 15.9 °C 15.3 °C 1011.7 hPa NW 3.2 km/h 17.7 km/h 96 % 0.0 mm 0 W/m2
07:05 15.9 °C 15.3 °C 1011.7 hPa WNW 3.2 km/h 14.5 km/h 96 % 0.0 mm 5 W/m2
07:10 15.9 °C 15.1 °C 1011.4 hPa West 1.6 km/h 14.5 km/h 95 % 0.0 mm 11 W/m2
07:15 15.9 °C 15.1 °C 1011.4 hPa West 14.5 km/h 14.5 km/h 95 % 0.0 mm 11 W/m2
07:20 16.0 °C 15.2 °C 1011.4 hPa West 8.0 km/h 14.5 km/h 95 % 0.0 mm 12 W/m2
07:25 16.0 °C 15.2 °C 1011.4 hPa WNW 4.8 km/h 14.5 km/h 95 % 0.0 mm 21 W/m2
07:30 16.0 °C 15.2 °C 1011.4 hPa West 4.8 km/h 12.9 km/h 95 % 0.0 mm 32 W/m2
07:35 16.0 °C 15.2 °C 1011.4 hPa WNW 6.4 km/h 11.3 km/h 95 % 0.0 mm 32 W/m2
07:40 16.0 °C 15.0 °C 1011.4 hPa WNW 6.4 km/h 12.9 km/h 94 % 0.0 mm 23 W/m2
07:45 16.1 °C 15.1 °C 1011.4 hPa West 6.4 km/h 12.9 km/h 94 % 0.0 mm 16 W/m2
07:50 16.2 °C 15.2 °C 1011.4 hPa WNW 6.4 km/h 12.9 km/h 94 % 0.0 mm 19 W/m2
07:55 16.2 °C 15.3 °C 1011.7 hPa WNW 4.8 km/h 14.5 km/h 94 % 0.0 mm 25 W/m2
08:00 16.3 °C 15.4 °C 1011.7 hPa West 9.7 km/h 14.5 km/h 94 % 0.0 mm 32 W/m2
08:05 16.3 °C 15.4 °C 1011.7 hPa WNW 9.7 km/h 14.5 km/h 94 % 0.0 mm 33 W/m2
08:10 16.4 °C 15.4 °C 1011.7 hPa WNW 6.4 km/h 14.5 km/h 94 % 0.0 mm 35 W/m2
08:15 16.3 °C 15.4 °C 1012.1 hPa West 4.8 km/h 12.9 km/h 94 % 0.0 mm 49 W/m2
08:20 16.5 °C 15.5 °C 1012.1 hPa Calm   12.9 km/h 94 % 0.0 mm 65 W/m2
08:25 16.6 °C 15.6 °C 1012.1 hPa West 4.8 km/h 14.5 km/h 94 % 0.0 mm 56 W/m2
08:30 16.7 °C 15.7 °C 1012.1 hPa WNW 8.0 km/h 14.5 km/h 94 % 0.0 mm 44 W/m2
08:35 16.7 °C 15.8 °C 1012.1 hPa West 4.8 km/h 20.9 km/h 94 % 0.0 mm 95 W/m2
08:40 16.8 °C 15.7 °C 1012.1 hPa West 6.4 km/h 20.9 km/h 93 % 0.0 mm 65 W/m2
08:45 16.9 °C 15.7 °C 1012.1 hPa WNW 8.0 km/h 16.1 km/h 93 % 0.0 mm 104 W/m2
08:50 17.0 °C 15.9 °C 1012.1 hPa NW 4.8 km/h 17.7 km/h 93 % 0.0 mm 162 W/m2
08:55 17.2 °C 16.0 °C 1012.4 hPa WNW 4.8 km/h 17.7 km/h 93 % 0.0 mm 144 W/m2
09:00 17.1 °C 15.8 °C 1012.4 hPa NW 1.6 km/h 12.9 km/h 92 % 0.0 mm 139 W/m2
09:05 17.3 °C 16.1 °C 1012.4 hPa WNW 1.6 km/h 9.7 km/h 93 % 0.0 mm 137 W/m2
09:10 17.2 °C 15.9 °C 1012.1 hPa Calm   9.7 km/h 92 % 0.0 mm 165 W/m2
09:15 17.3 °C 15.8 °C 1012.1 hPa West 6.4 km/h 8.0 km/h 91 % 0.0 mm 181 W/m2
09:20 17.4 °C 15.7 °C 1012.4 hPa Calm   8.0 km/h 90 % 0.0 mm 160 W/m2
09:25 17.3 °C 15.4 °C 1012.4 hPa WSW 4.8 km/h 11.3 km/h 89 % 0.0 mm 149 W/m2
09:30 17.3 °C 15.7 °C 1012.1 hPa WSW 4.8 km/h 11.3 km/h 90 % 0.0 mm 213 W/m2
09:35 17.4 °C 15.4 °C 1012.1 hPa WNW 1.6 km/h 9.7 km/h 88 % 0.0 mm 139 W/m2
09:40 17.4 °C 15.4 °C 1012.1 hPa West 6.4 km/h 11.3 km/h 88 % 0.0 mm 123 W/m2
09:45 17.4 °C 15.4 °C 1012.1 hPa West 6.4 km/h 14.5 km/h 88 % 0.0 mm 135 W/m2
09:50 17.4 °C 15.2 °C 1012.1 hPa West 3.2 km/h 14.5 km/h 87 % 0.0 mm 165 W/m2
09:55 17.4 °C 15.2 °C 1012.1 hPa WNW 8.0 km/h 17.7 km/h 87 % 0.0 mm 123 W/m2
10:00 17.4 °C 15.2 °C 1012.4 hPa WNW 12.9 km/h 19.3 km/h 87 % 0.0 mm 200 W/m2
10:05 17.4 °C 15.3 °C 1012.4 hPa WNW 4.8 km/h 19.3 km/h 87 % 0.0 mm 216 W/m2
10:10 17.6 °C 15.4 °C 1012.1 hPa WNW 4.8 km/h 17.7 km/h 87 % 0.0 mm 221 W/m2
10:15 17.7 °C 15.3 °C 1012.1 hPa NW 6.4 km/h 17.7 km/h 86 % 0.0 mm 234 W/m2
10:20 17.8 °C 15.5 °C 1012.4 hPa West 11.3 km/h 19.3 km/h 86 % 0.0 mm 295 W/m2
10:25 18.1 °C 15.5 °C 1012.4 hPa WNW 6.4 km/h 20.9 km/h 85 % 0.0 mm 478 W/m2
10:30 18.6 °C 15.7 °C 1012.4 hPa WNW 11.3 km/h 20.9 km/h 83 % 0.0 mm 504 W/m2
10:35 18.5 °C 15.2 °C 1012.4 hPa WNW 4.8 km/h 19.3 km/h 81 % 0.0 mm 431 W/m2
10:40 18.6 °C 15.4 °C 1012.4 hPa West 3.2 km/h 22.5 km/h 82 % 0.0 mm 504 W/m2
10:45 19.1 °C 15.7 °C 1012.4 hPa WNW 8.0 km/h 22.5 km/h 81 % 0.0 mm 533 W/m2
10:50 18.8 °C 14.9 °C 1012.4 hPa NW 6.4 km/h 20.9 km/h 78 % 0.0 mm 536 W/m2
10:55 19.1 °C 15.1 °C 1012.4 hPa WNW 8.0 km/h 22.5 km/h 78 % 0.0 mm 733 W/m2
11:00 19.2 °C 15.2 °C 1012.4 hPa WNW 12.9 km/h 22.5 km/h 78 % 0.0 mm 642 W/m2
11:05 19.6 °C 15.4 °C 1012.4 hPa West 14.5 km/h 20.9 km/h 77 % 0.0 mm 803 W/m2
11:10 19.4 °C 15.3 °C 1012.4 hPa WNW 16.1 km/h 19.3 km/h 77 % 0.0 mm 446 W/m2
11:15 19.0 °C 14.9 °C 1012.4 hPa West 14.5 km/h 20.9 km/h 77 % 0.0 mm 432 W/m2
11:20 18.8 °C 14.9 °C 1012.4 hPa NW 8.0 km/h 20.9 km/h 78 % 0.0 mm 403 W/m2
11:25 18.6 °C 14.8 °C 1012.1 hPa WNW 9.7 km/h 19.3 km/h 79 % 0.0 mm 362 W/m2
11:30 18.6 °C 14.8 °C 1012.4 hPa West 8.0 km/h 19.3 km/h 79 % 0.0 mm 374 W/m2
11:35 18.6 °C 14.6 °C 1012.1 hPa West 8.0 km/h 19.3 km/h 78 % 0.0 mm 360 W/m2
11:40 18.6 °C 14.4 °C 1012.1 hPa WSW 12.9 km/h 17.7 km/h 77 % 0.0 mm 371 W/m2
11:45 18.4 °C 14.5 °C 1012.1 hPa West 6.4 km/h 22.5 km/h 78 % 0.0 mm 378 W/m2
11:50 18.6 °C 14.7 °C 1012.1 hPa WNW 8.0 km/h 22.5 km/h 78 % 0.0 mm 434 W/m2
11:55 18.8 °C 14.9 °C 1012.1 hPa West 6.4 km/h 22.5 km/h 78 % 0.0 mm 381 W/m2
12:00 18.9 °C 15.2 °C 1012.1 hPa WSW 8.0 km/h 19.3 km/h 79 % 0.0 mm 399 W/m2
12:05 19.2 °C 15.6 °C 1012.1 hPa WNW 6.4 km/h 19.3 km/h 80 % 0.0 mm 415 W/m2
12:10 19.8 °C 15.7 °C 1012.4 hPa West 17.7 km/h 19.3 km/h 77 % 0.0 mm 466 W/m2
12:15 19.9 °C 15.7 °C 1012.4 hPa NW 4.8 km/h 19.3 km/h 77 % 0.0 mm 828 W/m2
12:20 20.1 °C 15.3 °C 1012.4 hPa WNW 9.7 km/h 19.3 km/h 74 % 0.0 mm 200 W/m2
12:25 19.9 °C 15.2 °C 1012.4 hPa WSW 24.1 km/h 25.7 km/h 74 % 0.0 mm 837 W/m2
12:30 20.1 °C 15.1 °C 1012.4 hPa NW 9.7 km/h 25.7 km/h 73 % 0.0 mm 842 W/m2
12:35 20.4 °C 15.0 °C 1012.4 hPa SW 9.7 km/h 24.1 km/h 71 % 0.0 mm 603 W/m2
12:40 20.1 °C 15.3 °C 1012.4 hPa West 1.6 km/h 27.4 km/h 74 % 0.0 mm 691 W/m2
12:45 20.3 °C 15.1 °C 1012.4 hPa West 16.1 km/h 27.4 km/h 72 % 0.0 mm 722 W/m2
12:50 20.1 °C 15.1 °C 1012.4 hPa West 6.4 km/h 24.1 km/h 73 % 0.0 mm 969 W/m2
12:55 20.1 °C 15.3 °C 1012.4 hPa WNW 11.3 km/h 24.1 km/h 74 % 0.0 mm 526 W/m2
13:00 20.1 °C 14.9 °C 1012.4 hPa WNW 9.7 km/h 30.6 km/h 72 % 0.0 mm 638 W/m2
13:10 20.6 °C 15.4 °C 1012.4 hPa West 14.5 km/h 27.4 km/h 72 % 0.0 mm 675 W/m2
13:15 20.2 °C 15.2 °C 1012.4 hPa West 9.7 km/h 30.6 km/h 73 % 0.0 mm 622 W/m2
13:20 20.3 °C 15.3 °C 1012.4 hPa WNW 6.4 km/h 30.6 km/h 73 % 0.0 mm 812 W/m2
13:25 21.1 °C 15.8 °C 1012.8 hPa WNW 8.0 km/h 24.1 km/h 72 % 0.0 mm 756 W/m2
13:30 20.9 °C 15.2 °C 1012.8 hPa West 11.3 km/h 25.7 km/h 70 % 0.0 mm 974 W/m2
13:35 21.2 °C 15.5 °C 1012.4 hPa West 4.8 km/h 27.4 km/h 70 % 0.0 mm 942 W/m2
13:40 21.4 °C 15.7 °C 1012.8 hPa SW 9.7 km/h 27.4 km/h 70 % 0.0 mm 1000 W/m2
13:45 21.1 °C 14.7 °C 1012.8 hPa NW 19.3 km/h 25.7 km/h 67 % 0.0 mm 701 W/m2
13:50 20.6 °C 15.2 °C 1012.8 hPa West 22.5 km/h 25.7 km/h 71 % 0.0 mm 671 W/m2
13:55 20.6 °C 15.4 °C 1012.8 hPa West 8.0 km/h 24.1 km/h 72 % 0.0 mm 803 W/m2
14:00 21.1 °C 15.6 °C 1012.4 hPa West 19.3 km/h 22.5 km/h 71 % 0.0 mm 1004 W/m2
14:05 20.8 °C 14.5 °C 1012.4 hPa SW 12.9 km/h 24.1 km/h 67 % 0.0 mm 724 W/m2
14:10 21.1 °C 15.1 °C 1012.4 hPa West 11.3 km/h 24.1 km/h 69 % 0.0 mm 810 W/m2
14:15 21.1 °C 15.2 °C 1012.4 hPa West 9.7 km/h 22.5 km/h 69 % 0.0 mm 693 W/m2
14:20 20.8 °C 14.9 °C 1012.4 hPa SW 11.3 km/h 24.1 km/h 69 % 0.0 mm 585 W/m2
14:25 20.3 °C 14.7 °C 1012.4 hPa WNW 11.3 km/h 29.0 km/h 70 % 0.0 mm 659 W/m2
14:30 20.6 °C 14.9 °C 1012.4 hPa West 9.7 km/h 29.0 km/h 70 % 0.0 mm 712 W/m2
14:35 21.3 °C 15.6 °C 1012.4 hPa West 8.0 km/h 24.1 km/h 70 % 0.0 mm 656 W/m2
14:40 21.5 °C 15.6 °C 1012.4 hPa WNW 11.3 km/h 22.5 km/h 69 % 0.0 mm 721 W/m2
14:45 20.9 °C 15.0 °C 1012.8 hPa WSW 9.7 km/h 27.4 km/h 69 % 0.0 mm 656 W/m2
14:50 20.8 °C 16.0 °C 1012.4 hPa WNW 19.3 km/h 27.4 km/h 74 % 0.0 mm 633 W/m2
14:55 20.8 °C 15.6 °C 1012.4 hPa West 16.1 km/h 24.1 km/h 72 % 0.0 mm 635 W/m2
15:00 20.7 °C 14.8 °C 1012.4 hPa WSW 20.9 km/h 24.1 km/h 69 % 0.0 mm 545 W/m2
15:05 20.8 °C 15.4 °C 1012.4 hPa West 12.9 km/h 29.0 km/h 71 % 0.0 mm 759 W/m2
15:10 20.8 °C 15.2 °C 1012.4 hPa West 16.1 km/h 29.0 km/h 70 % 0.0 mm 759 W/m2
15:15 21.0 °C 15.5 °C 1012.4 hPa NNW 14.5 km/h 25.7 km/h 71 % 0.0 mm 1014 W/m2
15:20 21.4 °C 15.2 °C 1012.4 hPa North 17.7 km/h 25.7 km/h 68 % 0.0 mm 742 W/m2
15:25 21.3 °C 15.6 °C 1012.4 hPa WNW 12.9 km/h 24.1 km/h 70 % 0.0 mm 649 W/m2
15:30 20.9 °C 15.4 °C 1012.4 hPa NW 8.0 km/h 33.8 km/h 71 % 0.0 mm 563 W/m2
15:35 21.1 °C 15.1 °C 1012.4 hPa WNW 9.7 km/h 33.8 km/h 69 % 0.0 mm 606 W/m2
15:40 20.9 °C 15.0 °C 1012.4 hPa West 20.9 km/h 32.2 km/h 69 % 0.0 mm 656 W/m2
15:45 20.6 °C 15.2 °C 1012.4 hPa West 14.5 km/h 32.2 km/h 71 % 0.0 mm 522 W/m2
15:50 20.8 °C 15.1 °C 1012.4 hPa WNW 4.8 km/h 29.0 km/h 70 % 0.0 mm 647 W/m2
15:55 21.3 °C 15.4 °C 1012.8 hPa WNW 12.9 km/h 29.0 km/h 69 % 0.0 mm 824 W/m2
16:00 21.5 °C 15.3 °C 1012.8 hPa NW 16.1 km/h 27.4 km/h 68 % 0.0 mm 795 W/m2
16:05 21.2 °C 14.8 °C 1012.8 hPa West 11.3 km/h 29.0 km/h 67 % 0.0 mm 828 W/m2
16:10 21.8 °C 15.6 °C 1012.8 hPa WNW 1.6 km/h 29.0 km/h 68 % 0.0 mm 833 W/m2
16:15 21.8 °C 14.7 °C 1012.8 hPa West 8.0 km/h 25.7 km/h 64 % 0.0 mm 884 W/m2
16:20 21.4 °C 14.8 °C 1012.8 hPa WNW 17.7 km/h 25.7 km/h 66 % 0.0 mm 861 W/m2
16:25 21.3 °C 14.9 °C 1012.8 hPa WSW 19.3 km/h 25.7 km/h 67 % 0.0 mm 679 W/m2
16:30 21.1 °C 14.9 °C 1012.8 hPa WNW 9.7 km/h 27.4 km/h 68 % 0.0 mm 772 W/m2
16:35 21.2 °C 15.5 °C 1012.8 hPa WSW 17.7 km/h 27.4 km/h 70 % 0.0 mm 786 W/m2
16:40 21.2 °C 15.5 °C 1012.8 hPa WSW 4.8 km/h 25.7 km/h 70 % 0.0 mm 773 W/m2
16:45 21.2 °C 15.0 °C 1012.8 hPa West 8.0 km/h 30.6 km/h 68 % 0.0 mm 823 W/m2
16:50 20.9 °C 14.8 °C 1012.8 hPa West 14.5 km/h 30.6 km/h 68 % 0.0 mm 589 W/m2
16:55 20.8 °C 14.9 °C 1012.8 hPa West 14.5 km/h 27.4 km/h 69 % 0.0 mm 624 W/m2
17:00 21.1 °C 14.9 °C 1012.8 hPa WNW 12.9 km/h 29.0 km/h 68 % 0.0 mm 729 W/m2
17:05 20.7 °C 14.8 °C 1012.8 hPa NNW 11.3 km/h 30.6 km/h 69 % 0.0 mm 429 W/m2
17:10 20.4 °C 15.0 °C 1012.8 hPa WNW 9.7 km/h 30.6 km/h 71 % 0.0 mm 345 W/m2
17:15 20.4 °C 15.0 °C 1012.8 hPa SW 11.3 km/h 24.1 km/h 71 % 0.0 mm 345 W/m2
17:20 21.1 °C 15.6 °C 1012.8 hPa WSW 11.3 km/h 24.1 km/h 71 % 0.0 mm 677 W/m2
17:25 21.4 °C 15.9 °C 1012.8 hPa NW 9.7 km/h 25.7 km/h 71 % 0.0 mm 638 W/m2
17:30 21.1 °C 15.2 °C 1012.8 hPa West 11.3 km/h 25.7 km/h 69 % 0.0 mm 605 W/m2
17:35 20.9 °C 15.3 °C 1012.8 hPa WNW 17.7 km/h 24.1 km/h 70 % 0.0 mm 599 W/m2
17:40 21.2 °C 15.7 °C 1012.8 hPa NW 16.1 km/h 22.5 km/h 71 % 0.0 mm 633 W/m2
17:45 20.6 °C 14.9 °C 1012.8 hPa WNW 25.7 km/h 27.4 km/h 70 % 0.0 mm 580 W/m2
17:50 20.4 °C 15.2 °C 1012.8 hPa West 9.7 km/h 29.0 km/h 72 % 0.0 mm 582 W/m2
17:55 20.4 °C 15.2 °C 1012.8 hPa SSW 9.7 km/h 29.0 km/h 72 % 0.0 mm 545 W/m2
18:00 20.3 °C 14.7 °C 1012.8 hPa West 9.7 km/h 27.4 km/h 70 % 0.0 mm 529 W/m2
18:05 20.5 °C 15.1 °C 1012.8 hPa West 17.7 km/h 30.6 km/h 71 % 0.0 mm 517 W/m2
18:15 20.3 °C 15.5 °C 1012.8 hPa WSW 9.7 km/h 27.4 km/h 74 % 0.0 mm 494 W/m2
18:20 20.2 °C 15.6 °C 1013.1 hPa WNW 4.8 km/h 20.9 km/h 75 % 0.0 mm 480 W/m2
18:25 20.3 °C 15.5 °C 1013.1 hPa SW 8.0 km/h 24.1 km/h 74 % 0.0 mm 464 W/m2
18:30 20.3 °C 15.5 °C 1013.1 hPa WNW 16.1 km/h 27.4 km/h 74 % 0.0 mm 455 W/m2
18:35 20.1 °C 15.3 °C 1013.1 hPa WNW 8.0 km/h 27.4 km/h 74 % 0.0 mm 468 W/m2
18:40 19.9 °C 15.2 °C 1013.1 hPa West 16.1 km/h 25.7 km/h 74 % 0.0 mm 434 W/m2
18:45 20.1 °C 15.5 °C 1013.1 hPa WSW 11.3 km/h 24.1 km/h 75 % 0.0 mm 418 W/m2
18:50 20.1 °C 15.3 °C 1013.1 hPa NW 17.7 km/h 27.4 km/h 74 % 0.0 mm 341 W/m2
18:55 19.7 °C 15.2 °C 1013.1 hPa West 16.1 km/h 27.4 km/h 75 % 0.0 mm 401 W/m2
19:00 19.8 °C 15.5 °C 1013.1 hPa West 12.9 km/h 27.4 km/h 76 % 0.0 mm 406 W/m2
19:05 19.9 °C 15.3 °C 1013.1 hPa West 8.0 km/h 24.1 km/h 75 % 0.0 mm 285 W/m2
19:10 19.7 °C 15.4 °C 1013.1 hPa WNW 12.9 km/h 30.6 km/h 76 % 0.0 mm 320 W/m2
19:15 19.4 °C 15.1 °C 1013.1 hPa WNW 11.3 km/h 30.6 km/h 76 % 0.0 mm 380 W/m2
19:20 19.7 °C 15.6 °C 1013.1 hPa NW 9.7 km/h 24.1 km/h 77 % 0.0 mm 123 W/m2
19:25 19.4 °C 15.1 °C 1013.1 hPa West 6.4 km/h 20.9 km/h 76 % 0.0 mm 213 W/m2
19:30 19.2 °C 14.9 °C 1013.1 hPa NNW 11.3 km/h 22.5 km/h 76 % 0.0 mm 49 W/m2
19:35 18.8 °C 14.9 °C 1013.1 hPa West 8.0 km/h 27.4 km/h 78 % 0.0 mm 65 W/m2
19:40 18.6 °C 14.9 °C 1013.1 hPa WNW 17.7 km/h 27.4 km/h 79 % 0.0 mm 77 W/m2
19:45 18.5 °C 14.8 °C 1013.1 hPa West 12.9 km/h 24.1 km/h 79 % 0.0 mm 172 W/m2
19:50 18.4 °C 14.7 °C 1013.1 hPa WNW 11.3 km/h 24.1 km/h 79 % 0.0 mm 216 W/m2
19:55 18.7 °C 15.0 °C 1013.1 hPa WSW 9.7 km/h 22.5 km/h 79 % 0.0 mm 225 W/m2
20:00 18.9 °C 15.0 °C 1013.1 hPa West 8.0 km/h 24.1 km/h 78 % 0.0 mm 211 W/m2
20:05 18.8 °C 14.9 °C 1013.1 hPa West 11.3 km/h 24.1 km/h 78 % 0.0 mm 72 W/m2
20:10 18.7 °C 14.6 °C 1013.1 hPa West 4.8 km/h 24.1 km/h 77 % 0.0 mm 137 W/m2
20:15 18.7 °C 14.6 °C 1013.1 hPa WNW 11.3 km/h 24.1 km/h 77 % 0.0 mm 123 W/m2
20:20 18.6 °C 14.7 °C 1013.1 hPa West 11.3 km/h 20.9 km/h 78 % 0.0 mm 104 W/m2
20:25 18.5 °C 14.6 °C 1013.1 hPa WNW 6.4 km/h 22.5 km/h 78 % 0.0 mm 120 W/m2
20:30 18.4 °C 14.5 °C 1013.1 hPa WSW 9.7 km/h 24.1 km/h 78 % 0.0 mm 102 W/m2
20:35 18.4 °C 14.5 °C 1013.1 hPa WNW 4.8 km/h 24.1 km/h 78 % 0.0 mm 51 W/m2
20:40 18.3 °C 14.6 °C 1013.4 hPa SW 14.5 km/h 24.1 km/h 79 % 0.0 mm 44 W/m2
20:45 18.1 °C 14.6 °C 1013.4 hPa NW 17.7 km/h 24.1 km/h 80 % 0.0 mm 42 W/m2
20:50 18.0 °C 14.5 °C 1013.4 hPa NW 17.7 km/h 24.1 km/h 80 % 0.0 mm 40 W/m2
20:55 17.9 °C 14.2 °C 1013.4 hPa WNW 6.4 km/h 22.5 km/h 79 % 0.0 mm 33 W/m2
21:00 17.9 °C 14.2 °C 1013.4 hPa WSW 11.3 km/h 27.4 km/h 79 % 0.0 mm 26 W/m2
21:05 17.8 °C 14.3 °C 1013.4 hPa NW 9.7 km/h 27.4 km/h 80 % 0.0 mm 26 W/m2
21:10 17.7 °C 14.4 °C 1013.8 hPa West 9.7 km/h 24.1 km/h 81 % 0.0 mm 21 W/m2
21:15 17.7 °C 14.4 °C 1013.8 hPa WNW 3.2 km/h 24.1 km/h 81 % 0.0 mm 19 W/m2
21:20 17.6 °C 14.5 °C 1013.8 hPa NW 9.7 km/h 19.3 km/h 82 % 0.0 mm 21 W/m2
21:25 17.7 °C 14.6 °C 1013.8 hPa WNW 6.4 km/h 22.5 km/h 82 % 0.0 mm 19 W/m2
21:30 17.7 °C 14.4 °C 1013.8 hPa WNW 9.7 km/h 29.0 km/h 81 % 0.0 mm 11 W/m2
21:35 17.6 °C 14.3 °C 1013.8 hPa West 6.4 km/h 29.0 km/h 81 % 0.0 mm 9 W/m2
21:40 17.6 °C 14.3 °C 1013.8 hPa West 16.1 km/h 22.5 km/h 81 % 0.0 mm 5 W/m2
21:45 17.4 °C 14.1 °C 1013.8 hPa West 12.9 km/h 20.9 km/h 81 % 0.0 mm 0 W/m2
21:55 17.4 °C 14.3 °C 1013.8 hPa WNW 11.3 km/h 25.7 km/h 82 % 0.0 mm 0 W/m2
22:00 17.3 °C 14.2 °C 1013.8 hPa WNW 8.0 km/h 25.7 km/h 82 % 0.0 mm 0 W/m2
22:05 17.3 °C 14.2 °C 1013.8 hPa West 8.0 km/h 17.7 km/h 82 % 0.0 mm 0 W/m2
22:10 17.3 °C 14.2 °C 1013.8 hPa NW 12.9 km/h 20.9 km/h 82 % 0.0 mm 0 W/m2
22:15 17.3 °C 14.2 °C 1013.8 hPa WNW 8.0 km/h 20.9 km/h 82 % 0.0 mm 0 W/m2
22:20 17.3 °C 14.2 °C 1013.8 hPa WNW 14.5 km/h 24.1 km/h 82 % 0.0 mm 0 W/m2
22:25 17.3 °C 14.2 °C 1014.1 hPa WNW 8.0 km/h 24.1 km/h 82 % 0.0 mm 0 W/m2
22:30 17.3 °C 14.2 °C 1014.1 hPa NW 12.9 km/h 22.5 km/h 82 % 0.0 mm 0 W/m2
22:35 17.3 °C 14.4 °C 1014.1 hPa West 11.3 km/h 22.5 km/h 83 % 0.0 mm 0 W/m2
22:40 17.2 °C 14.3 °C 1014.1 hPa NW 11.3 km/h 20.9 km/h 83 % 0.0 mm 0 W/m2
22:45 17.2 °C 14.3 °C 1014.1 hPa WNW 14.5 km/h 17.7 km/h 83 % 0.0 mm 0 W/m2
22:50 17.2 °C 14.3 °C 1014.1 hPa WNW 4.8 km/h 19.3 km/h 83 % 0.0 mm 0 W/m2
22:55 17.1 °C 14.4 °C 1014.1 hPa WNW 12.9 km/h 19.3 km/h 84 % 0.0 mm 0 W/m2
23:00 17.0 °C 14.3 °C 1014.1 hPa WNW 1.6 km/h 19.3 km/h 84 % 0.0 mm 0 W/m2
23:05 16.9 °C 14.4 °C 1014.1 hPa WNW 6.4 km/h 16.1 km/h 85 % 0.0 mm 0 W/m2
23:10 16.8 °C 14.3 °C 1014.1 hPa West 8.0 km/h 16.1 km/h 85 % 0.0 mm 0 W/m2
23:15 16.7 °C 14.0 °C 1014.1 hPa NW 9.7 km/h 19.3 km/h 84 % 0.0 mm 0 W/m2
23:20 16.7 °C 13.8 °C 1014.1 hPa NW 9.7 km/h 19.3 km/h 83 % 0.0 mm 0 W/m2
23:25 16.7 °C 13.8 °C 1014.1 hPa West 6.4 km/h 17.7 km/h 83 % 0.0 mm 0 W/m2
23:30 16.6 °C 13.8 °C 1014.1 hPa WNW 8.0 km/h 17.7 km/h 84 % 0.0 mm 0 W/m2
23:35 16.6 °C 13.9 °C 1014.4 hPa NW 12.9 km/h 19.3 km/h 84 % 0.0 mm 0 W/m2
23:40 16.7 °C 13.9 °C 1014.4 hPa WNW 11.3 km/h 20.9 km/h 84 % 0.0 mm 0 W/m2
23:45 16.7 °C 14.0 °C 1014.4 hPa West 4.8 km/h 20.9 km/h 84 % 0.0 mm 0 W/m2
23:50 16.7 °C 13.9 °C 1014.4 hPa WNW 4.8 km/h 19.3 km/h 84 % 0.0 mm 0 W/m2
Avec l'autorisation de Weather Underground - 1.75 mb